createdAt,value
2023-03-14T00:00:30.373Z,9.87
2023-03-14T00:05:30.683Z,9.85
2023-03-14T00:10:30.342Z,9.79
2023-03-14T00:15:32.113Z,9.75
2023-03-14T00:20:30.719Z,9.70
2023-03-14T00:25:30.585Z,9.64
2023-03-14T00:30:30.256Z,9.59
2023-03-14T00:35:30.552Z,9.50
2023-03-14T00:40:30.341Z,9.45
2023-03-14T00:45:30.485Z,9.37
2023-03-14T00:50:30.737Z,9.30
2023-03-14T00:55:30.435Z,9.21
2023-03-14T01:00:30.837Z,9.12
2023-03-14T01:05:30.819Z,9.04
2023-03-14T01:10:07.505Z,9.04
2023-03-14T01:10:30.892Z,8.95
2023-03-14T01:15:31.765Z,8.87
2023-03-14T01:20:30.694Z,8.83
2023-03-14T01:21:55.438Z,8.83
2023-03-14T01:25:30.296Z,8.79
2023-03-14T01:30:30.497Z,8.74
2023-03-14T01:35:30.740Z,8.70
2023-03-14T01:40:30.323Z,8.64
2023-03-14T01:45:50.289Z,8.60
2023-03-14T01:47:10.609Z,8.60
2023-03-14T01:50:30.329Z,8.54
2023-03-14T01:55:30.516Z,8.50
2023-03-14T02:00:30.838Z,8.47
2023-03-14T02:05:34.473Z,8.42
2023-03-14T02:10:33.665Z,8.38
2023-03-14T02:15:31.617Z,8.34
2023-03-14T02:20:36.921Z,8.29
2023-03-14T02:25:38.819Z,8.25
2023-03-14T02:30:32.310Z,8.18
2023-03-14T02:35:35.621Z,8.11
2023-03-14T02:39:44.671Z,8.11
2023-03-14T02:40:30.195Z,8.06
2023-03-14T02:45:41.401Z,8.03
2023-03-14T02:50:33.343Z,8.01
2023-03-14T02:55:30.391Z,8.00
2023-03-14T03:00:30.850Z,8.03
2023-03-14T03:05:30.157Z,8.05
2023-03-14T03:10:31.296Z,8.05
2023-03-14T03:14:12.624Z,8.05
2023-03-14T03:15:30.232Z,7.99
2023-03-14T03:20:30.219Z,7.90
2023-03-14T03:25:30.829Z,7.82
2023-03-14T03:26:03.673Z,7.82
2023-03-14T03:30:30.180Z,7.76
2023-03-14T03:35:30.375Z,7.69
2023-03-14T03:40:30.588Z,7.60
2023-03-14T03:45:30.572Z,7.49
2023-03-14T03:50:30.268Z,7.37
2023-03-14T03:55:30.244Z,7.31
2023-03-14T04:00:31.632Z,7.26
2023-03-14T04:05:30.520Z,7.20
2023-03-14T04:07:55.455Z,7.20
2023-03-14T04:10:30.313Z,7.10
2023-03-14T04:15:30.251Z,7.05
2023-03-14T04:20:30.552Z,6.96
2023-03-14T04:25:30.179Z,6.91
2023-03-14T04:30:30.204Z,6.85
2023-03-14T04:35:31.174Z,6.78
2023-03-14T04:40:30.336Z,6.70
2023-03-14T04:45:30.262Z,6.69
2023-03-14T04:50:30.407Z,6.72
2023-03-14T04:55:32.258Z,6.73
2023-03-14T05:00:30.949Z,6.75
2023-03-14T05:03:49.658Z,6.75
2023-03-14T05:05:30.106Z,6.82
2023-03-14T05:10:30.140Z,6.88
2023-03-14T05:15:30.589Z,6.98
2023-03-14T05:20:30.701Z,7.04
2023-03-14T05:25:32.294Z,7.15
2023-03-14T05:30:30.899Z,7.14
2023-03-14T05:35:30.090Z,7.16
2023-03-14T05:40:30.215Z,7.21
2023-03-14T05:45:30.591Z,7.25
2023-03-14T05:50:30.055Z,7.48
2023-03-14T05:55:30.218Z,7.65
2023-03-14T06:00:30.406Z,8.12
2023-03-14T06:05:30.041Z,8.58
2023-03-14T06:10:30.593Z,9.07
2023-03-14T06:15:30.238Z,9.43
2023-03-14T06:20:30.300Z,9.07
2023-03-14T06:25:30.082Z,8.96
2023-03-14T06:30:30.665Z,8.95
2023-03-14T06:35:30.166Z,8.84
2023-03-14T06:40:30.397Z,8.94
2023-03-14T06:45:30.247Z,9.21
2023-03-14T06:50:30.065Z,9.70
2023-03-14T06:55:30.158Z,10.21
2023-03-14T07:00:30.667Z,10.69
2023-03-14T07:05:30.126Z,10.87
2023-03-14T07:10:26.190Z,11.06
2023-03-14T07:10:30.074Z,11.06
2023-03-14T07:15:30.986Z,11.24
2023-03-14T07:18:14.162Z,11.24
2023-03-14T07:20:32.253Z,11.17
2023-03-14T07:25:30.082Z,11.50
2023-03-14T07:30:30.854Z,12.19
2023-03-14T07:35:30.064Z,14.91
2023-03-14T07:40:30.138Z,22.63
2023-03-14T07:45:30.353Z,26.45
2023-03-14T07:50:30.198Z,24.98
2023-03-14T07:55:30.263Z,27.05
2023-03-14T08:00:30.546Z,28.42
2023-03-14T08:05:30.216Z,24.98
2023-03-14T08:10:30.522Z,23.74
2023-03-14T08:15:31.866Z,22.44
2023-03-14T08:20:30.541Z,21.12
2023-03-14T08:25:30.771Z,20.21
2023-03-14T08:30:30.537Z,19.10
2023-03-14T08:35:30.021Z,19.05
2023-03-14T08:40:30.006Z,19.36
2023-03-14T08:45:30.241Z,18.63
2023-03-14T08:50:30.104Z,18.14
2023-03-14T08:55:30.021Z,18.16
2023-03-14T09:00:30.558Z,19.51
2023-03-14T09:05:33.283Z,21.04
2023-03-14T09:10:30.082Z,22.18
2023-03-14T09:15:30.331Z,22.59
2023-03-14T09:20:30.037Z,22.80
2023-03-14T09:25:30.037Z,21.74
2023-03-14T09:30:30.436Z,20.29
2023-03-14T09:35:30.193Z,20.07
2023-03-14T09:40:35.106Z,20.06
2023-03-14T09:45:33.590Z,20.39
2023-03-14T09:50:36.779Z,20.50
2023-03-14T09:55:31.609Z,20.81
2023-03-14T10:00:31.765Z,20.87
2023-03-14T10:05:30.013Z,20.99
2023-03-14T10:10:30.621Z,21.61
2023-03-14T10:11:27.456Z,21.61
2023-03-14T10:15:31.684Z,21.52
2023-03-14T10:20:33.711Z,20.61
2023-03-14T10:25:32.034Z,19.42
2023-03-14T10:30:38.733Z,18.71
2023-03-14T10:35:34.632Z,18.40
2023-03-14T10:40:31.814Z,18.12
2023-03-14T10:45:34.340Z,18.41
2023-03-14T10:50:31.424Z,19.58
2023-03-14T10:55:40.710Z,19.23
2023-03-14T11:00:33.192Z,19.49
2023-03-14T11:05:34.917Z,19.47
2023-03-14T11:10:33.486Z,19.02
2023-03-14T11:15:34.432Z,18.52
2023-03-14T11:20:36.510Z,18.11
2023-03-14T11:25:33.096Z,17.55
2023-03-14T11:30:36.634Z,16.99
2023-03-14T11:35:34.711Z,16.56
2023-03-14T11:40:33.448Z,16.22
2023-03-14T11:45:35.477Z,16.01
2023-03-14T11:50:30.333Z,15.79
2023-03-14T11:55:34.408Z,15.51
2023-03-14T12:00:30.682Z,15.27
2023-03-14T12:05:39.168Z,15.38
2023-03-14T12:10:36.606Z,15.58
2023-03-14T12:15:30.048Z,15.99
2023-03-14T12:20:30.058Z,16.62
2023-03-14T12:25:32.012Z,16.51
2023-03-14T12:30:32.613Z,16.06
2023-03-14T12:35:34.174Z,15.68
2023-03-14T12:40:32.884Z,15.43
2023-03-14T12:45:31.597Z,15.23
2023-03-14T12:50:41.998Z,15.04
2023-03-14T12:55:36.125Z,14.78
2023-03-14T13:00:32.351Z,14.57
2023-03-14T13:05:30.310Z,14.31
2023-03-14T13:10:39.424Z,14.04
2023-03-14T13:15:33.204Z,13.68
2023-03-14T13:20:34.264Z,13.42
2023-03-14T13:25:32.034Z,13.24
2023-03-14T13:26:02.971Z,13.24
2023-03-14T13:30:40.842Z,13.03
2023-03-14T13:31:22.088Z,13.03
2023-03-14T13:35:40.253Z,12.84
2023-03-14T13:40:32.911Z,12.70
2023-03-14T13:45:30.135Z,12.60
2023-03-14T13:50:30.245Z,12.52
2023-03-14T13:55:30.023Z,12.37
2023-03-14T14:00:30.054Z,12.20
2023-03-14T14:05:31.464Z,12.07
2023-03-14T14:15:34.199Z,11.95
2023-03-14T14:20:34.472Z,11.84
2023-03-14T14:25:30.397Z,11.76
2023-03-14T14:30:32.540Z,11.72
2023-03-14T14:35:33.265Z,11.76
2023-03-14T14:40:31.435Z,11.79
2023-03-14T14:45:29.880Z,11.75
2023-03-14T14:50:32.152Z,11.70
2023-03-14T14:52:36.701Z,11.70
2023-03-14T14:55:33.970Z,11.61
2023-03-14T15:00:30.590Z,11.52
2023-03-14T15:05:30.988Z,11.57
2023-03-14T15:10:29.859Z,11.49
2023-03-14T15:15:30.010Z,11.47
2023-03-14T15:20:30.536Z,11.42
2023-03-14T15:25:53.314Z,11.29
2023-03-14T15:30:30.567Z,11.20
2023-03-14T15:35:29.929Z,11.13
2023-03-14T15:40:30.894Z,11.04
2023-03-14T15:45:30.792Z,10.97
2023-03-14T15:50:30.115Z,10.93
2023-03-14T15:55:30.002Z,10.90
2023-03-14T16:00:30.323Z,10.84
2023-03-14T16:05:29.828Z,10.79
2023-03-14T16:10:30.616Z,10.79
2023-03-14T16:15:29.964Z,10.72
2023-03-14T16:20:38.716Z,10.62
2023-03-14T16:25:39.890Z,10.57
2023-03-14T16:30:31.845Z,10.55
2023-03-14T16:35:29.866Z,10.49
2023-03-14T16:40:30.802Z,10.43
2023-03-14T16:45:32.123Z,10.43
2023-03-14T16:50:29.814Z,10.40
2023-03-14T16:55:30.269Z,10.41
2023-03-14T17:00:30.633Z,10.39
2023-03-14T17:05:30.316Z,10.34
2023-03-14T17:10:29.922Z,10.33
2023-03-14T17:15:30.568Z,10.33
2023-03-14T17:20:30.460Z,10.34
